LEMH/MAH METAR and TAF weather

Enter ICAO airport designator
Station Type Date Time Source
LEMH METAR 2020/06/01 15:00 UTC NOAA

LEMH 011500Z 14008KT 090V180 CAVOK 24/14 Q1016


Station Type Date Time Source
LEMH Decoded METAR 2020/06/01 15:00 UTC NOAA

Menorca / Mahon, Spain (LEMH) 39-52N 004-14E 82M
Jun 01, 2020 - 11:00 AM EDT / 2020.06.01 1500 UTC
Wind: from the SE (140 degrees) at 9 MPH (8 KT) (direction variable):0
Visibility: greater than 7 mile(s):0
Temperature: 75 F (24 C)
Dew Point: 57 F (14 C)
Relative Humidity: 53%
Pressure (altimeter): 30.00 in. Hg (1016 hPa)
ob: LEMH 011500Z 14008KT 090V180 CAVOK 24/14 Q1016
cycle: 15

Station Type Date Time Source
LEMH TAF 2020/06/01 15:31 UTC NOAA

TAF LEMH 011400Z 0115/0215 11009KT 9999 FEW015 TX26/0212Z TN15/0206Z PROB30
TEMPO 0120/0206 3000 BR
BECMG 0122/0124 VRB04KT
BECMG 0207/0209 12009KT

Example: see airport list